createdAt,value
2023-05-15T00:02:12.596Z,101139.16
2023-05-15T00:04:41.336Z,101138.52
2023-05-15T00:07:10.022Z,101142.41
2023-05-15T00:09:39.149Z,101139.83
2023-05-15T00:12:08.228Z,101139.25
2023-05-15T00:14:36.657Z,101135.70
2023-05-15T00:17:05.544Z,101137.17
2023-05-15T00:19:33.996Z,101140.80
2023-05-15T00:22:02.379Z,101141.77
2023-05-15T00:24:30.968Z,101142.23
2023-05-15T00:27:01.122Z,101143.77
2023-05-15T00:29:29.615Z,101142.31
2023-05-15T00:31:58.395Z,101144.50
2023-05-15T00:34:27.134Z,101140.61
2023-05-15T00:36:55.666Z,101144.52
2023-05-15T00:39:24.148Z,101137.73
2023-05-15T00:41:54.022Z,101134.92
2023-05-15T00:44:23.755Z,101137.64
2023-05-15T00:46:54.713Z,101135.80
2023-05-15T00:49:24.076Z,101136.62
2023-05-15T00:51:53.523Z,101137.21
2023-05-15T00:54:22.084Z,101141.94
2023-05-15T00:56:51.725Z,101139.73
2023-05-15T00:59:22.197Z,101136.98
2023-05-15T01:01:51.250Z,101137.64
2023-05-15T01:04:19.849Z,101139.15
2023-05-15T01:06:49.164Z,101139.27
2023-05-15T01:09:19.337Z,101137.98
2023-05-15T01:11:53.576Z,101134.91
2023-05-15T01:14:22.243Z,101134.81
2023-05-15T01:16:51.588Z,101141.98
2023-05-15T01:19:20.742Z,101142.80
2023-05-15T01:22:10.512Z,101139.27
2023-05-15T01:25:02.696Z,101140.69
2023-05-15T01:27:42.571Z,101135.85
2023-05-15T01:30:32.796Z,101130.18
2023-05-15T01:33:34.103Z,101129.23
2023-05-15T01:36:21.154Z,101122.21
2023-05-15T01:38:56.004Z,101121.88
2023-05-15T01:41:34.004Z,101119.14
2023-05-15T01:44:08.168Z,101118.19
2023-05-15T01:46:46.083Z,101117.59
2023-05-15T01:49:18.294Z,101118.98
2023-05-15T01:51:53.081Z,101119.48
2023-05-15T01:54:23.246Z,101117.18
2023-05-15T01:56:53.703Z,101114.52
2023-05-15T01:59:23.357Z,101116.21
2023-05-15T02:01:52.709Z,101117.40
2023-05-15T02:04:22.618Z,101113.73
2023-05-15T02:06:53.397Z,101113.50
2023-05-15T02:09:24.027Z,101108.14
2023-05-15T02:11:53.007Z,101105.11
2023-05-15T02:14:21.917Z,101100.35
2023-05-15T02:16:51.304Z,101096.73
2023-05-15T02:19:19.840Z,101091.98
2023-05-15T02:21:49.070Z,101092.71
2023-05-15T02:24:17.551Z,101089.33
2023-05-15T02:27:12.831Z,101085.35
2023-05-15T02:30:06.715Z,101086.60
2023-05-15T02:33:17.015Z,101084.27
2023-05-15T02:35:57.255Z,101079.81
2023-05-15T02:38:33.249Z,101083.31
2023-05-15T02:41:03.618Z,101079.23
2023-05-15T02:43:37.501Z,101082.11
2023-05-15T02:46:07.728Z,101084.19
2023-05-15T02:48:39.764Z,101084.13
2023-05-15T02:51:09.222Z,101084.72
2023-05-15T02:53:42.604Z,101083.41
2023-05-15T02:56:11.217Z,101087.11
2023-05-15T02:58:40.603Z,101086.52
2023-05-15T03:01:09.368Z,101079.11
2023-05-15T03:03:37.798Z,101079.68
2023-05-15T03:06:06.605Z,101082.44
2023-05-15T03:08:35.439Z,101083.94
2023-05-15T03:11:04.099Z,101089.98
2023-05-15T03:13:32.581Z,101097.01
2023-05-15T03:16:01.317Z,101099.52
2023-05-15T03:18:29.989Z,101100.91
2023-05-15T03:20:58.673Z,101096.61
2023-05-15T03:23:27.279Z,101092.77
2023-05-15T03:25:55.777Z,101095.95
2023-05-15T03:28:24.347Z,101096.81
2023-05-15T03:30:53.083Z,101102.48
2023-05-15T03:33:21.733Z,101102.14
2023-05-15T03:35:51.352Z,101104.78
2023-05-15T03:38:20.621Z,101102.14
2023-05-15T03:40:51.106Z,101101.59
2023-05-15T03:43:20.153Z,101097.25
2023-05-15T03:45:50.333Z,101095.73
2023-05-15T03:48:19.008Z,101097.61
2023-05-15T03:50:47.571Z,101097.34
2023-05-15T03:53:16.118Z,101099.26
2023-05-15T03:55:44.796Z,101101.23
2023-05-15T03:58:13.268Z,101096.03
2023-05-15T04:00:42.016Z,101090.64
2023-05-15T04:03:10.950Z,101081.20
2023-05-15T04:05:39.824Z,101075.77
2023-05-15T04:08:10.379Z,101072.94
2023-05-15T04:10:39.041Z,101079.64
2023-05-15T04:13:07.620Z,101083.49
2023-05-15T04:15:36.288Z,101088.10
2023-05-15T04:18:05.038Z,101092.73
2023-05-15T04:20:34.300Z,101086.63
2023-05-15T04:23:04.291Z,101088.77
2023-05-15T04:25:33.083Z,101082.40
2023-05-15T04:28:01.823Z,101078.91
2023-05-15T04:30:30.877Z,101078.63
2023-05-15T04:32:59.728Z,101076.08
2023-05-15T04:35:28.445Z,101072.48
2023-05-15T04:37:57.525Z,101066.00
2023-05-15T04:40:26.515Z,101066.55
2023-05-15T04:42:55.227Z,101067.55
2023-05-15T04:45:27.165Z,101065.27
2023-05-15T04:47:55.625Z,101066.93
2023-05-15T04:50:24.434Z,101059.94
2023-05-15T04:52:53.205Z,101060.28
2023-05-15T04:55:21.880Z,101055.65
2023-05-15T04:57:51.473Z,101053.52
2023-05-15T05:00:20.891Z,101058.77
2023-05-15T05:02:49.625Z,101062.73
2023-05-15T05:05:18.599Z,101056.96
2023-05-15T05:07:47.101Z,101053.38
2023-05-15T05:10:15.806Z,101050.55
2023-05-15T05:12:44.475Z,101053.79
2023-05-15T05:15:14.198Z,101054.68
2023-05-15T05:17:42.788Z,101052.67
2023-05-15T05:20:13.292Z,101051.35
2023-05-15T05:22:42.733Z,101044.94
2023-05-15T05:25:11.746Z,101043.69
2023-05-15T05:27:40.536Z,101043.94
2023-05-15T05:30:10.308Z,101044.64
2023-05-15T05:32:38.946Z,101046.27
2023-05-15T05:35:08.141Z,101048.02
2023-05-15T05:37:38.636Z,101055.75
2023-05-15T05:40:09.603Z,101057.20
2023-05-15T05:42:38.164Z,101055.69
2023-05-15T05:45:08.130Z,101048.81
2023-05-15T05:47:36.916Z,101044.98
2023-05-15T05:50:07.564Z,101045.82
2023-05-15T05:52:36.130Z,101047.16
2023-05-15T05:55:05.243Z,101047.25
2023-05-15T05:57:33.842Z,101045.73
2023-05-15T06:00:03.087Z,101040.05
2023-05-15T06:02:38.567Z,101037.84
2023-05-15T06:05:08.882Z,101036.38
2023-05-15T06:07:37.496Z,101036.15
2023-05-15T06:10:07.725Z,101035.39
2023-05-15T06:12:36.477Z,101034.33
2023-05-15T06:15:05.540Z,101035.64
2023-05-15T06:17:34.335Z,101032.96
2023-05-15T06:20:05.887Z,101031.74
2023-05-15T06:22:34.709Z,101029.89
2023-05-15T06:25:06.263Z,101027.09
2023-05-15T06:27:34.808Z,101024.25
2023-05-15T06:30:03.570Z,101024.60
2023-05-15T06:32:34.624Z,101027.84
2023-05-15T06:35:03.827Z,101030.30
2023-05-15T06:37:32.313Z,101027.45
2023-05-15T06:40:01.272Z,101023.85
2023-05-15T06:42:29.961Z,101021.70
2023-05-15T06:44:58.724Z,101016.70
2023-05-15T06:47:27.634Z,101012.69
2023-05-15T06:49:56.238Z,101008.27
2023-05-15T06:52:24.846Z,101008.17
2023-05-15T06:54:53.364Z,100998.86
2023-05-15T06:57:22.043Z,100995.91
2023-05-15T06:59:50.504Z,100990.56
2023-05-15T07:02:19.362Z,100989.27
2023-05-15T07:04:48.720Z,100981.88
2023-05-15T07:07:18.009Z,100977.55
2023-05-15T07:09:48.597Z,100980.64
2023-05-15T07:12:17.159Z,100978.03
2023-05-15T07:14:45.871Z,100977.93
2023-05-15T07:17:14.384Z,100975.23
2023-05-15T07:19:42.997Z,100978.52
2023-05-15T07:22:11.545Z,100982.11
2023-05-15T07:24:40.648Z,100974.12
2023-05-15T07:27:09.478Z,100980.14
2023-05-15T07:29:38.042Z,100975.06
2023-05-15T07:32:07.071Z,100973.03
2023-05-15T07:34:35.712Z,100978.29
2023-05-15T07:37:04.426Z,100975.36
2023-05-15T07:39:33.411Z,100971.68
2023-05-15T07:42:02.012Z,100964.93
2023-05-15T07:44:30.744Z,100970.71
2023-05-15T07:46:59.771Z,100964.02
2023-05-15T07:49:28.355Z,100954.19
2023-05-15T07:51:56.906Z,100951.70
2023-05-15T07:54:26.980Z,100945.41
2023-05-15T07:56:55.619Z,100949.15
2023-05-15T07:59:25.123Z,100942.16
2023-05-15T08:01:53.490Z,100928.81
2023-05-15T08:04:22.149Z,100925.36
2023-05-15T08:06:51.468Z,100928.45
2023-05-15T08:09:19.905Z,100939.08
2023-05-15T08:11:48.693Z,100944.09
2023-05-15T08:14:17.433Z,100932.20
2023-05-15T08:16:47.047Z,100926.48
2023-05-15T08:19:15.883Z,100918.77
2023-05-15T08:21:44.489Z,100917.02
2023-05-15T08:24:13.682Z,100921.65
2023-05-15T08:26:42.307Z,100924.06
2023-05-15T08:29:12.008Z,100915.79
2023-05-15T08:31:40.957Z,100905.87
2023-05-15T08:34:09.624Z,100902.53
2023-05-15T08:36:39.587Z,100880.45
2023-05-15T08:39:09.397Z,100890.44
2023-05-15T08:42:05.445Z,100904.09
2023-05-15T08:44:34.992Z,100900.48
2023-05-15T08:47:08.305Z,100899.51
2023-05-15T08:49:51.332Z,100901.29
2023-05-15T08:52:20.912Z,100904.61
2023-05-15T08:54:50.904Z,100900.23
2023-05-15T08:57:20.037Z,100896.71
2023-05-15T08:59:49.774Z,100902.81
2023-05-15T09:02:19.977Z,100901.25
2023-05-15T09:04:49.426Z,100897.14
2023-05-15T09:07:18.590Z,100899.01
2023-05-15T09:09:47.762Z,100906.48
2023-05-15T09:12:17.217Z,100899.76
2023-05-15T09:14:45.950Z,100894.05
2023-05-15T09:17:14.457Z,100896.17
2023-05-15T09:19:43.944Z,100882.77
2023-05-15T09:22:17.821Z,100888.40
2023-05-15T09:24:48.483Z,100884.45
2023-05-15T09:27:17.267Z,100875.91
2023-05-15T09:29:47.094Z,100865.73
2023-05-15T09:32:15.863Z,100864.52
2023-05-15T09:34:46.006Z,100854.60
2023-05-15T09:37:35.034Z,100851.96
2023-05-15T09:40:11.927Z,100859.86
2023-05-15T09:42:40.535Z,100857.17
2023-05-15T09:45:18.547Z,100844.93
2023-05-15T09:47:47.510Z,100857.61
2023-05-15T09:50:23.205Z,100859.23
2023-05-15T09:52:52.224Z,100865.73
2023-05-15T09:55:23.355Z,100857.48
2023-05-15T09:58:17.219Z,100862.88
2023-05-15T10:00:49.574Z,100867.61
2023-05-15T10:03:22.170Z,100869.65
2023-05-15T10:05:59.837Z,100858.57
2023-05-15T10:08:29.355Z,100850.80
2023-05-15T10:11:01.545Z,100853.34
2023-05-15T10:13:32.103Z,100843.95
2023-05-15T10:16:03.922Z,100854.39
2023-05-15T10:18:36.251Z,100859.39
2023-05-15T10:21:05.619Z,100855.64
2023-05-15T10:23:36.491Z,100855.68
2023-05-15T10:26:16.537Z,100847.50
2023-05-15T10:28:46.517Z,100846.69
2023-05-15T10:31:15.466Z,100851.85
2023-05-15T10:33:44.771Z,100855.64
2023-05-15T10:36:15.036Z,100851.15
2023-05-15T10:38:44.390Z,100867.48
2023-05-15T10:41:18.114Z,100869.78
2023-05-15T10:43:49.207Z,100865.26
2023-05-15T10:46:18.414Z,100857.11
2023-05-15T10:48:47.079Z,100861.45
2023-05-15T10:51:30.129Z,100856.88
2023-05-15T10:54:04.319Z,100861.59
2023-05-15T10:56:38.375Z,100853.09
2023-05-15T10:59:09.831Z,100855.82
2023-05-15T11:01:41.129Z,100857.70
2023-05-15T11:04:15.822Z,100849.74
2023-05-15T11:06:47.733Z,100843.17
2023-05-15T11:09:27.371Z,100859.13
2023-05-15T11:11:58.942Z,100853.13
2023-05-15T11:14:29.956Z,100853.05
2023-05-15T11:17:08.001Z,100853.59
2023-05-15T11:19:51.623Z,100862.04
2023-05-15T11:22:26.475Z,100856.25
2023-05-15T11:25:07.045Z,100861.59
2023-05-15T11:27:42.002Z,100858.78
2023-05-15T11:30:25.164Z,100856.46
2023-05-15T11:32:59.141Z,100847.08
2023-05-15T11:35:46.080Z,100853.08
2023-05-15T11:38:18.154Z,100851.27
2023-05-15T11:40:52.695Z,100840.58
2023-05-15T11:43:29.941Z,100840.52
2023-05-15T11:46:05.145Z,100835.52
2023-05-15T11:48:44.610Z,100825.08
2023-05-15T11:51:27.685Z,100825.86
2023-05-15T11:53:56.936Z,100816.21
2023-05-15T11:56:30.653Z,100810.49
2023-05-15T11:59:01.332Z,100821.05
2023-05-15T12:01:41.583Z,100820.44
2023-05-15T12:04:18.919Z,100799.31
2023-05-15T12:06:49.788Z,100792.38
2023-05-15T12:09:27.522Z,100793.84
2023-05-15T12:11:56.312Z,100790.80
2023-05-15T12:14:32.107Z,100790.00
2023-05-15T12:17:04.713Z,100786.91
2023-05-15T12:19:38.314Z,100785.48
2023-05-15T12:22:08.577Z,100774.93
2023-05-15T12:24:39.953Z,100762.34
2023-05-15T12:27:09.741Z,100758.65
2023-05-15T12:29:40.736Z,100756.27
2023-05-15T12:32:09.909Z,100759.45
2023-05-15T12:34:38.740Z,100751.22
2023-05-15T12:37:13.449Z,100742.91
2023-05-15T12:40:02.310Z,100748.15
2023-05-15T12:42:31.076Z,100760.28
2023-05-15T12:45:00.246Z,100760.60
2023-05-15T12:47:29.088Z,100757.96
2023-05-15T12:49:58.189Z,100749.35
2023-05-15T12:52:31.396Z,100747.29
2023-05-15T12:55:03.937Z,100746.05
2023-05-15T12:57:33.273Z,100743.31
2023-05-15T13:00:01.953Z,100745.23
2023-05-15T13:02:31.262Z,100753.38
2023-05-15T13:05:04.176Z,100753.52
2023-05-15T13:07:34.254Z,100751.06
2023-05-15T13:10:07.360Z,100751.41
2023-05-15T13:12:44.889Z,100741.63
2023-05-15T13:15:31.664Z,100745.36
2023-05-15T13:18:10.786Z,100749.02
2023-05-15T13:20:54.283Z,100750.06
2023-05-15T13:23:25.248Z,100748.98
2023-05-15T13:25:53.833Z,100752.38
2023-05-15T13:28:22.356Z,100752.05
2023-05-15T13:30:51.446Z,100748.33
2023-05-15T13:33:20.006Z,100752.27
2023-05-15T13:35:48.584Z,100752.02
2023-05-15T13:38:17.130Z,100754.20
2023-05-15T13:40:45.784Z,100747.54
2023-05-15T13:43:14.385Z,100754.21
2023-05-15T13:45:42.975Z,100750.61
2023-05-15T13:48:11.645Z,100752.03
2023-05-15T13:50:40.448Z,100758.55
2023-05-15T13:53:09.497Z,100756.30
2023-05-15T13:55:38.642Z,100750.13
2023-05-15T13:58:07.540Z,100744.52
2023-05-15T14:00:36.347Z,100743.48
2023-05-15T14:03:05.022Z,100736.40
2023-05-15T14:05:33.912Z,100736.99
2023-05-15T14:08:02.569Z,100737.06
2023-05-15T14:10:31.228Z,100734.88
2023-05-15T14:13:01.005Z,100730.85
2023-05-15T14:15:29.858Z,100730.45
2023-05-15T14:17:58.365Z,100722.91
2023-05-15T14:20:27.494Z,100719.59
2023-05-15T14:22:56.319Z,100720.86
2023-05-15T14:25:24.889Z,100711.88
2023-05-15T14:27:53.654Z,100712.92
2023-05-15T14:30:23.460Z,100711.25
2023-05-15T14:32:52.263Z,100712.61
2023-05-15T14:35:20.878Z,100705.34
2023-05-15T14:37:49.497Z,100699.61
2023-05-15T14:40:18.028Z,100699.39
2023-05-15T14:42:46.765Z,100700.68
2023-05-15T14:45:15.472Z,100702.04
2023-05-15T14:47:45.301Z,100700.05
2023-05-15T14:50:14.376Z,100699.20
2023-05-15T14:52:43.133Z,100700.60
2023-05-15T14:55:12.030Z,100703.86
2023-05-15T14:57:40.909Z,100709.16
2023-05-15T15:00:11.303Z,100712.35
2023-05-15T15:02:39.921Z,100712.02
2023-05-15T15:05:09.746Z,100707.89
2023-05-15T15:08:11.005Z,100701.55
2023-05-15T15:10:41.092Z,100704.52
2023-05-15T15:13:10.800Z,100704.16
2023-05-15T15:15:40.045Z,100709.34
2023-05-15T15:18:08.688Z,100706.36
2023-05-15T15:20:37.472Z,100701.52
2023-05-15T15:23:06.208Z,100700.78
2023-05-15T15:25:34.859Z,100697.18
2023-05-15T15:28:03.535Z,100690.35
2023-05-15T15:30:32.122Z,100694.13
2023-05-15T15:33:00.945Z,100693.90
2023-05-15T15:35:29.875Z,100690.71
2023-05-15T15:37:58.473Z,100684.36
2023-05-15T15:40:27.295Z,100677.09
2023-05-15T15:42:56.252Z,100673.86
2023-05-15T15:45:25.082Z,100671.09
2023-05-15T15:47:53.855Z,100674.42
2023-05-15T15:50:22.376Z,100677.80
2023-05-15T15:52:50.903Z,100674.15
2023-05-15T15:55:19.574Z,100668.58
2023-05-15T15:57:48.160Z,100665.04
2023-05-15T16:00:17.670Z,100666.36
2023-05-15T16:02:46.694Z,100665.41
2023-05-15T16:05:15.479Z,100660.81
2023-05-15T16:07:44.190Z,100656.48
2023-05-15T16:10:13.532Z,100663.98
2023-05-15T16:12:43.179Z,100664.00
2023-05-15T16:15:23.406Z,100660.97
2023-05-15T16:17:54.273Z,100660.91
2023-05-15T16:20:24.192Z,100664.04
2023-05-15T16:22:53.152Z,100662.81
2023-05-15T16:25:21.898Z,100662.45
2023-05-15T16:27:50.580Z,100667.20
2023-05-15T16:30:19.432Z,100669.20
2023-05-15T16:32:48.955Z,100671.33
2023-05-15T16:38:38.321Z,100666.19
2023-05-15T16:41:06.915Z,100666.25
2023-05-15T16:43:38.396Z,100673.94
2023-05-15T16:46:07.086Z,100677.98
2023-05-15T16:48:36.002Z,100676.25
2023-05-15T16:51:05.992Z,100677.12
2023-05-15T16:53:34.639Z,100675.59
2023-05-15T16:56:03.261Z,100673.05
2023-05-15T16:58:32.112Z,100671.01
2023-05-15T17:04:35.444Z,100679.17
2023-05-15T17:07:05.483Z,100683.23
2023-05-15T17:09:35.208Z,100683.39
2023-05-15T17:12:05.443Z,100680.09
2023-05-15T17:14:33.911Z,100676.06
2023-05-15T17:17:02.371Z,100666.29
2023-05-15T17:19:36.632Z,100665.35
2023-05-15T17:22:05.340Z,100673.09
2023-05-15T17:24:49.396Z,100674.88
2023-05-15T17:27:20.123Z,100680.72
2023-05-15T17:29:49.043Z,100690.14
2023-05-15T17:32:18.285Z,100690.64
2023-05-15T17:34:47.265Z,100692.29
2023-05-15T17:37:16.014Z,100684.94
2023-05-15T17:39:44.850Z,100686.55
2023-05-15T17:42:13.641Z,100694.50
2023-05-15T17:44:42.142Z,100691.27
2023-05-15T17:47:10.922Z,100689.09
2023-05-15T17:49:40.011Z,100693.71
2023-05-15T17:52:09.257Z,100698.77
2023-05-15T17:54:38.565Z,100698.20
2023-05-15T17:57:07.454Z,100696.25
2023-05-15T17:59:35.951Z,100700.11
2023-05-15T18:02:05.376Z,100701.81
2023-05-15T18:04:34.237Z,100703.17
2023-05-15T18:07:02.966Z,100704.66
2023-05-15T18:09:31.852Z,100706.12
2023-05-15T18:12:00.533Z,100706.23
2023-05-15T18:14:29.338Z,100703.68
2023-05-15T18:16:58.429Z,100711.20
2023-05-15T18:19:26.959Z,100719.09
2023-05-15T18:21:55.561Z,100723.91
2023-05-15T18:24:24.048Z,100723.21
2023-05-15T18:26:52.503Z,100725.40
2023-05-15T18:29:21.072Z,100732.20
2023-05-15T18:31:53.262Z,100739.19
2023-05-15T18:34:23.773Z,100743.76
2023-05-15T18:36:56.571Z,100744.78
2023-05-15T18:39:26.555Z,100751.86
2023-05-15T18:41:55.355Z,100753.62
2023-05-15T18:44:24.047Z,100752.27
2023-05-15T18:46:52.984Z,100753.95
2023-05-15T18:49:21.640Z,100754.79
2023-05-15T18:51:52.868Z,100753.29
2023-05-15T18:54:21.425Z,100757.95
2023-05-15T18:56:50.067Z,100762.05
2023-05-15T18:59:20.272Z,100759.88
2023-05-15T19:01:49.682Z,100753.63
2023-05-15T19:04:18.609Z,100753.65
2023-05-15T19:06:50.519Z,100748.12
2023-05-15T19:09:19.419Z,100747.63
2023-05-15T19:11:49.853Z,100744.27
2023-05-15T19:14:19.118Z,100739.63
2023-05-15T19:16:47.825Z,100744.33
2023-05-15T19:19:16.371Z,100743.14
2023-05-15T19:21:45.186Z,100742.61
2023-05-15T19:24:13.804Z,100744.19
2023-05-15T19:26:43.404Z,100740.44
2023-05-15T19:29:11.843Z,100743.38
2023-05-15T19:31:40.894Z,100738.67
2023-05-15T19:34:10.254Z,100739.16
2023-05-15T19:36:38.829Z,100739.96
2023-05-15T19:39:07.343Z,100743.04
2023-05-15T19:41:35.988Z,100740.95
2023-05-15T19:44:06.288Z,100741.05
2023-05-15T19:46:35.432Z,100737.13
2023-05-15T19:49:04.188Z,100725.66
2023-05-15T19:51:34.317Z,100722.48
2023-05-15T19:54:02.855Z,100722.96
2023-05-15T19:56:31.437Z,100725.77
2023-05-15T19:59:00.695Z,100723.03
2023-05-15T20:01:29.204Z,100725.09
2023-05-15T20:03:57.861Z,100723.53
2023-05-15T20:06:26.532Z,100727.50
2023-05-15T20:08:54.963Z,100724.50
2023-05-15T20:11:24.066Z,100726.06
2023-05-15T20:13:52.579Z,100726.77
2023-05-15T20:16:22.111Z,100731.80
2023-05-15T20:18:55.442Z,100735.75
2023-05-15T20:21:23.953Z,100728.58
2023-05-15T20:23:52.415Z,100732.46
2023-05-15T20:26:22.431Z,100731.42
2023-05-15T20:28:51.013Z,100722.65
2023-05-15T20:31:19.642Z,100719.62
2023-05-15T20:33:48.172Z,100710.57
2023-05-15T20:36:16.796Z,100710.87
2023-05-15T20:38:45.344Z,100710.42
2023-05-15T20:41:13.826Z,100710.27
2023-05-15T20:43:42.309Z,100702.98
2023-05-15T20:46:11.283Z,100702.77
2023-05-15T20:48:40.092Z,100705.89
2023-05-15T20:53:49.819Z,100704.95
2023-05-15T20:56:19.882Z,100706.30
2023-05-15T20:58:48.750Z,100698.95
2023-05-15T21:01:17.232Z,100696.39
2023-05-15T21:03:45.891Z,100695.58
2023-05-15T21:06:15.145Z,100697.33
2023-05-15T21:08:43.600Z,100695.78
2023-05-15T21:11:12.177Z,100693.08
2023-05-15T21:13:40.646Z,100695.08
2023-05-15T21:16:09.146Z,100695.30
2023-05-15T21:18:39.187Z,100701.27
2023-05-15T21:21:08.906Z,100709.55
2023-05-15T21:23:37.555Z,100718.77
2023-05-15T21:26:06.368Z,100715.55
2023-05-15T21:28:35.070Z,100719.31
2023-05-15T21:31:10.956Z,100719.86
2023-05-15T21:33:40.249Z,100724.01
2023-05-15T21:36:09.010Z,100721.38
2023-05-15T21:38:37.459Z,100713.16
2023-05-15T21:41:06.201Z,100712.16
2023-05-15T21:43:34.781Z,100715.58
2023-05-15T21:46:03.788Z,100717.98
2023-05-15T21:48:32.411Z,100713.85
2023-05-15T21:51:00.935Z,100711.89
2023-05-15T21:53:29.477Z,100713.08
2023-05-15T21:56:02.322Z,100714.42
2023-05-15T21:58:31.533Z,100724.64
2023-05-15T22:01:00.124Z,100723.06
2023-05-15T22:03:28.797Z,100727.77
2023-05-15T22:05:57.606Z,100729.80
2023-05-15T22:08:26.717Z,100734.98
2023-05-15T22:10:55.168Z,100737.77
2023-05-15T22:13:23.717Z,100733.06
2023-05-15T22:15:52.420Z,100729.02
2023-05-15T22:18:21.491Z,100733.52
2023-05-15T22:20:50.602Z,100731.95
2023-05-15T22:23:19.239Z,100723.41
2023-05-15T22:25:49.178Z,100720.83
2023-05-15T22:28:18.114Z,100711.36
2023-05-15T22:30:46.943Z,100708.05
2023-05-15T22:33:15.565Z,100707.61
2023-05-15T22:35:44.666Z,100710.86
2023-05-15T22:38:13.149Z,100718.68
2023-05-15T22:40:41.765Z,100724.58
2023-05-15T22:43:10.609Z,100727.50
2023-05-15T22:45:39.207Z,100724.02
2023-05-15T22:48:07.812Z,100726.27
2023-05-15T22:50:36.978Z,100723.12
2023-05-15T22:53:05.456Z,100720.86
2023-05-15T22:55:33.927Z,100719.43
2023-05-15T22:58:02.434Z,100716.93
2023-05-15T23:00:31.439Z,100713.39
2023-05-15T23:03:00.287Z,100709.36
2023-05-15T23:05:28.782Z,100708.45
2023-05-15T23:08:15.837Z,100711.58
2023-05-15T23:10:44.308Z,100723.34
2023-05-15T23:13:12.940Z,100727.05
2023-05-15T23:15:41.517Z,100721.48
2023-05-15T23:18:10.014Z,100722.77
2023-05-15T23:20:38.596Z,100718.79
2023-05-15T23:23:07.109Z,100717.27
2023-05-15T23:25:36.138Z,100714.27
2023-05-15T23:28:04.627Z,100711.38
2023-05-15T23:30:33.305Z,100707.70
2023-05-15T23:33:01.866Z,100703.76
2023-05-15T23:35:30.536Z,100695.02
2023-05-15T23:37:59.028Z,100684.37
2023-05-15T23:40:27.781Z,100685.41
2023-05-15T23:42:56.556Z,100689.86
2023-05-15T23:45:25.155Z,100689.05
2023-05-15T23:47:53.522Z,100691.31
2023-05-15T23:50:22.208Z,100683.23
2023-05-15T23:52:50.738Z,100678.42
2023-05-15T23:55:19.579Z,100677.51
2023-05-15T23:57:48.511Z,100671.86
